sensor_id;sensor_type;location;lat;lon;timestamp;pressure;altitude;pressure_sealevel;temperature;humidity
72896;BME280;61036;53.224;6.554;2023-10-13T00:02:11;100982.19;;;20.71;100.00
72896;BME280;61036;53.224;6.554;2023-10-13T00:04:36;100987.25;;;20.35;100.00
72896;BME280;61036;53.224;6.554;2023-10-13T00:07:03;100985.91;;;20.78;100.00
72896;BME280;61036;53.224;6.554;2023-10-13T00:09:29;100976.34;;;20.74;100.00
72896;BME280;61036;53.224;6.554;2023-10-13T00:11:59;100984.75;;;21.04;100.00
72896;BME280;61036;53.224;6.554;2023-10-13T00:14:25;100973.81;;;20.73;100.00
72896;BME280;61036;53.224;6.554;2023-10-13T00:17:03;100961.03;;;20.88;100.00
72896;BME280;61036;53.224;6.554;2023-10-13T00:19:34;100954.06;;;21.40;100.00
72896;BME280;61036;53.224;6.554;2023-10-13T00:22:07;100953.75;;;21.27;100.00
72896;BME280;61036;53.224;6.554;2023-10-13T00:24:38;100953.22;;;20.77;100.00
72896;BME280;61036;53.224;6.554;2023-10-13T00:27:17;100946.56;;;21.26;100.00
72896;BME280;61036;53.224;6.554;2023-10-13T00:30:09;100944.16;;;20.99;100.00
72896;BME280;61036;53.224;6.554;2023-10-13T00:32:52;100940.91;;;21.04;100.00
72896;BME280;61036;53.224;6.554;2023-10-13T00:35:25;100942.72;;;21.12;100.00
72896;BME280;61036;53.224;6.554;2023-10-13T00:37:55;100950.81;;;21.05;100.00
72896;BME280;61036;53.224;6.554;2023-10-13T00:40:23;100950.28;;;21.33;100.00
72896;BME280;61036;53.224;6.554;2023-10-13T00:42:55;100953.75;;;21.04;100.00
72896;BME280;61036;53.224;6.554;2023-10-13T00:45:25;100955.69;;;20.95;100.00
72896;BME280;61036;53.224;6.554;2023-10-13T00:47:53;100946.78;;;21.24;100.00
72896;BME280;61036;53.224;6.554;2023-10-13T00:50:22;100941.56;;;21.37;100.00
72896;BME280;61036;53.224;6.554;2023-10-13T00:52:49;100947.84;;;21.15;100.00
72896;BME280;61036;53.224;6.554;2023-10-13T00:55:18;100943.00;;;21.25;100.00
72896;BME280;61036;53.224;6.554;2023-10-13T00:57:50;100933.06;;;21.24;100.00
72896;BME280;61036;53.224;6.554;2023-10-13T01:00:19;100939.50;;;21.08;100.00
72896;BME280;61036;53.224;6.554;2023-10-13T01:02:47;100939.72;;;21.90;100.00
72896;BME280;61036;53.224;6.554;2023-10-13T01:05:24;100925.28;;;21.05;100.00
72896;BME280;61036;53.224;6.554;2023-10-13T01:07:50;100933.00;;;21.09;100.00
72896;BME280;61036;53.224;6.554;2023-10-13T01:10:20;100922.47;;;21.21;100.00
72896;BME280;61036;53.224;6.554;2023-10-13T01:12:51;100926.69;;;20.69;100.00
72896;BME280;61036;53.224;6.554;2023-10-13T01:15:18;100922.25;;;21.22;100.00
72896;BME280;61036;53.224;6.554;2023-10-13T01:17:46;100920.44;;;20.84;100.00
72896;BME280;61036;53.224;6.554;2023-10-13T01:20:15;100918.28;;;21.71;100.00
72896;BME280;61036;53.224;6.554;2023-10-13T01:22:51;100905.78;;;20.99;100.00
72896;BME280;61036;53.224;6.554;2023-10-13T01:25:25;100906.03;;;21.97;100.00
72896;BME280;61036;53.224;6.554;2023-10-13T01:27:55;100900.25;;;21.31;100.00
72896;BME280;61036;53.224;6.554;2023-10-13T01:30:21;100895.69;;;21.00;100.00
72896;BME280;61036;53.224;6.554;2023-10-13T01:32:52;100889.28;;;21.54;100.00
72896;BME280;61036;53.224;6.554;2023-10-13T01:35:19;100892.06;;;20.37;100.00
72896;BME280;61036;53.224;6.554;2023-10-13T01:37:52;100888.31;;;20.69;100.00
72896;BME280;61036;53.224;6.554;2023-10-13T01:40:18;100879.41;;;21.21;100.00
72896;BME280;61036;53.224;6.554;2023-10-13T01:42:46;100880.44;;;21.20;100.00
72896;BME280;61036;53.224;6.554;2023-10-13T01:45:12;100874.53;;;21.32;100.00
72896;BME280;61036;53.224;6.554;2023-10-13T01:47:38;100870.88;;;20.70;100.00
72896;BME280;61036;53.224;6.554;2023-10-13T01:50:06;100870.47;;;21.65;100.00
72896;BME280;61036;53.224;6.554;2023-10-13T01:52:46;100867.66;;;20.90;100.00
72896;BME280;61036;53.224;6.554;2023-10-13T01:55:13;100860.50;;;21.50;100.00
72896;BME280;61036;53.224;6.554;2023-10-13T01:57:40;100851.22;;;21.13;100.00
72896;BME280;61036;53.224;6.554;2023-10-13T02:00:09;100842.94;;;21.59;100.00
72896;BME280;61036;53.224;6.554;2023-10-13T02:02:45;100831.91;;;21.06;100.00
72896;BME280;61036;53.224;6.554;2023-10-13T02:05:11;100833.75;;;21.29;100.00
72896;BME280;61036;53.224;6.554;2023-10-13T02:07:42;100836.88;;;21.49;100.00
72896;BME280;61036;53.224;6.554;2023-10-13T02:10:11;100836.94;;;21.17;100.00
72896;BME280;61036;53.224;6.554;2023-10-13T02:12:39;100830.81;;;20.92;100.00
72896;BME280;61036;53.224;6.554;2023-10-13T02:15:11;100833.91;;;21.50;100.00
72896;BME280;61036;53.224;6.554;2023-10-13T02:17:39;100833.38;;;20.94;100.00
72896;BME280;61036;53.224;6.554;2023-10-13T02:20:08;100827.97;;;21.61;100.00
72896;BME280;61036;53.224;6.554;2023-10-13T02:22:39;100822.97;;;21.27;100.00
72896;BME280;61036;53.224;6.554;2023-10-13T02:25:17;100820.22;;;21.95;100.00
72896;BME280;61036;53.224;6.554;2023-10-13T02:28:00;100815.53;;;21.36;100.00
72896;BME280;61036;53.224;6.554;2023-10-13T02:30:26;100812.81;;;20.90;100.00
72896;BME280;61036;53.224;6.554;2023-10-13T02:32:56;100804.22;;;20.93;100.00
72896;BME280;61036;53.224;6.554;2023-10-13T02:35:22;100803.28;;;21.61;100.00
72896;BME280;61036;53.224;6.554;2023-10-13T02:37:56;100797.59;;;21.78;100.00
72896;BME280;61036;53.224;6.554;2023-10-13T02:40:24;100788.41;;;21.41;100.00
72896;BME280;61036;53.224;6.554;2023-10-13T02:42:49;100791.47;;;21.76;100.00
72896;BME280;61036;53.224;6.554;2023-10-13T02:45:15;100784.34;;;21.52;100.00
72896;BME280;61036;53.224;6.554;2023-10-13T02:47:40;100782.06;;;22.00;100.00
72896;BME280;61036;53.224;6.554;2023-10-13T02:50:09;100784.59;;;21.42;100.00
72896;BME280;61036;53.224;6.554;2023-10-13T02:52:38;100770.38;;;21.23;100.00
72896;BME280;61036;53.224;6.554;2023-10-13T02:55:09;100774.56;;;21.34;100.00
72896;BME280;61036;53.224;6.554;2023-10-13T02:57:39;100778.09;;;21.43;100.00
72896;BME280;61036;53.224;6.554;2023-10-13T03:00:06;100773.09;;;21.61;100.00
72896;BME280;61036;53.224;6.554;2023-10-13T03:02:38;100769.59;;;21.53;100.00
72896;BME280;61036;53.224;6.554;2023-10-13T03:05:13;100773.00;;;21.55;100.00
72896;BME280;61036;53.224;6.554;2023-10-13T03:07:39;100766.75;;;21.90;100.00
72896;BME280;61036;53.224;6.554;2023-10-13T03:10:08;100761.81;;;21.86;100.00
72896;BME280;61036;53.224;6.554;2023-10-13T03:12:38;100757.94;;;21.65;100.00
72896;BME280;61036;53.224;6.554;2023-10-13T03:15:04;100758.06;;;21.57;100.00
72896;BME280;61036;53.224;6.554;2023-10-13T03:17:44;100753.88;;;21.61;100.00
72896;BME280;61036;53.224;6.554;2023-10-13T03:20:14;100743.63;;;22.00;100.00
72896;BME280;61036;53.224;6.554;2023-10-13T03:22:42;100730.53;;;22.02;100.00
72896;BME280;61036;53.224;6.554;2023-10-13T03:25:13;100733.25;;;22.31;100.00
72896;BME280;61036;53.224;6.554;2023-10-13T03:27:51;100734.44;;;21.92;100.00
72896;BME280;61036;53.224;6.554;2023-10-13T03:30:17;100730.03;;;21.77;100.00
72896;BME280;61036;53.224;6.554;2023-10-13T03:32:43;100727.13;;;21.49;100.00
72896;BME280;61036;53.224;6.554;2023-10-13T03:35:12;100722.66;;;21.62;100.00
72896;BME280;61036;53.224;6.554;2023-10-13T03:37:39;100714.44;;;20.95;100.00
72896;BME280;61036;53.224;6.554;2023-10-13T03:40:10;100712.94;;;21.96;100.00
72896;BME280;61036;53.224;6.554;2023-10-13T03:42:45;100704.09;;;21.35;100.00
72896;BME280;61036;53.224;6.554;2023-10-13T03:45:23;100694.47;;;22.05;100.00
72896;BME280;61036;53.224;6.554;2023-10-13T03:47:50;100686.66;;;21.72;100.00
72896;BME280;61036;53.224;6.554;2023-10-13T03:50:19;100685.63;;;21.14;100.00
72896;BME280;61036;53.224;6.554;2023-10-13T03:52:58;100679.84;;;21.23;100.00
72896;BME280;61036;53.224;6.554;2023-10-13T03:55:24;100669.09;;;21.07;100.00
72896;BME280;61036;53.224;6.554;2023-10-13T03:57:58;100666.06;;;21.76;100.00
72896;BME280;61036;53.224;6.554;2023-10-13T04:00:25;100664.28;;;21.24;100.00
72896;BME280;61036;53.224;6.554;2023-10-13T04:02:53;100654.56;;;21.51;100.00
72896;BME280;61036;53.224;6.554;2023-10-13T04:05:29;100637.06;;;21.37;100.00
72896;BME280;61036;53.224;6.554;2023-10-13T04:08:21;100634.84;;;21.48;100.00
72896;BME280;61036;53.224;6.554;2023-10-13T04:10:54;100627.06;;;22.02;100.00
72896;BME280;61036;53.224;6.554;2023-10-13T04:13:20;100621.03;;;21.92;100.00
72896;BME280;61036;53.224;6.554;2023-10-13T04:16:07;100609.06;;;21.78;100.00
72896;BME280;61036;53.224;6.554;2023-10-13T04:18:51;100608.94;;;21.86;100.00
72896;BME280;61036;53.224;6.554;2023-10-13T04:21:22;100597.22;;;21.41;100.00
72896;BME280;61036;53.224;6.554;2023-10-13T04:24:11;100597.56;;;21.53;100.00
72896;BME280;61036;53.224;6.554;2023-10-13T04:26:49;100576.97;;;21.28;100.00
72896;BME280;61036;53.224;6.554;2023-10-13T04:29:34;100572.28;;;21.07;100.00
72896;BME280;61036;53.224;6.554;2023-10-13T04:32:18;100573.72;;;21.54;100.00
72896;BME280;61036;53.224;6.554;2023-10-13T04:35:04;100565.97;;;21.57;100.00
72896;BME280;61036;53.224;6.554;2023-10-13T04:37:44;100552.44;;;21.99;100.00
72896;BME280;61036;53.224;6.554;2023-10-13T04:40:18;100544.50;;;21.82;100.00
72896;BME280;61036;53.224;6.554;2023-10-13T04:42:45;100539.13;;;22.17;100.00
72896;BME280;61036;53.224;6.554;2023-10-13T04:45:22;100535.59;;;21.59;100.00
72896;BME280;61036;53.224;6.554;2023-10-13T04:48:00;100535.06;;;21.91;100.00
72896;BME280;61036;53.224;6.554;2023-10-13T04:50:46;100524.56;;;21.74;100.00
72896;BME280;61036;53.224;6.554;2023-10-13T04:53:17;100522.19;;;21.92;100.00
72896;BME280;61036;53.224;6.554;2023-10-13T04:56:20;100524.66;;;21.44;100.00
72896;BME280;61036;53.224;6.554;2023-10-13T04:59:04;100527.41;;;21.44;100.00
72896;BME280;61036;53.224;6.554;2023-10-13T05:02:05;100506.06;;;21.61;100.00
72896;BME280;61036;53.224;6.554;2023-10-13T05:05:13;100506.06;;;21.39;100.00
72896;BME280;61036;53.224;6.554;2023-10-13T05:07:39;100492.94;;;21.05;100.00
72896;BME280;61036;53.224;6.554;2023-10-13T05:10:23;100483.19;;;21.97;100.00
72896;BME280;61036;53.224;6.554;2023-10-13T05:13:07;100492.56;;;21.08;100.00
72896;BME280;61036;53.224;6.554;2023-10-13T05:15:51;100487.25;;;21.58;100.00
72896;BME280;61036;53.224;6.554;2023-10-13T05:18:36;100474.59;;;21.06;100.00
72896;BME280;61036;53.224;6.554;2023-10-13T05:21:20;100468.06;;;20.70;100.00
72896;BME280;61036;53.224;6.554;2023-10-13T05:24:05;100476.38;;;21.13;100.00
72896;BME280;61036;53.224;6.554;2023-10-13T05:26:49;100461.00;;;21.12;100.00
72896;BME280;61036;53.224;6.554;2023-10-13T05:29:38;100454.59;;;20.75;100.00
72896;BME280;61036;53.224;6.554;2023-10-13T05:32:22;100449.94;;;20.02;100.00
72896;BME280;61036;53.224;6.554;2023-10-13T05:35:06;100433.13;;;21.30;100.00
72896;BME280;61036;53.224;6.554;2023-10-13T05:37:50;100419.28;;;20.81;100.00
72896;BME280;61036;53.224;6.554;2023-10-13T05:40:35;100419.19;;;20.74;100.00
72896;BME280;61036;53.224;6.554;2023-10-13T05:43:19;100418.72;;;20.85;100.00
72896;BME280;61036;53.224;6.554;2023-10-13T05:46:05;100423.84;;;20.59;100.00
72896;BME280;61036;53.224;6.554;2023-10-13T05:49:02;100424.66;;;20.44;100.00
72896;BME280;61036;53.224;6.554;2023-10-13T05:51:32;100425.69;;;19.99;100.00
72896;BME280;61036;53.224;6.554;2023-10-13T05:54:04;100420.63;;;21.06;100.00
72896;BME280;61036;53.224;6.554;2023-10-13T05:59:24;100401.44;;;20.25;100.00
72896;BME280;61036;53.224;6.554;2023-10-13T06:02:08;100398.34;;;20.94;100.00
72896;BME280;61036;53.224;6.554;2023-10-13T06:04:52;100396.50;;;19.91;100.00
72896;BME280;61036;53.224;6.554;2023-10-13T06:07:36;100384.53;;;20.66;100.00
72896;BME280;61036;53.224;6.554;2023-10-13T06:10:20;100384.38;;;20.89;100.00
72896;BME280;61036;53.224;6.554;2023-10-13T06:13:04;100391.09;;;20.87;100.00
72896;BME280;61036;53.224;6.554;2023-10-13T06:15:48;100385.09;;;20.32;100.00
72896;BME280;61036;53.224;6.554;2023-10-13T06:18:32;100377.72;;;20.47;100.00
72896;BME280;61036;53.224;6.554;2023-10-13T06:21:16;100383.84;;;19.75;100.00
72896;BME280;61036;53.224;6.554;2023-10-13T06:23:59;100379.78;;;20.45;100.00
72896;BME280;61036;53.224;6.554;2023-10-13T06:26:44;100375.81;;;20.48;100.00
72896;BME280;61036;53.224;6.554;2023-10-13T06:29:30;100375.09;;;20.39;100.00
72896;BME280;61036;53.224;6.554;2023-10-13T06:31:57;100373.47;;;20.45;100.00
72896;BME280;61036;53.224;6.554;2023-10-13T06:34:23;100354.59;;;20.50;100.00
72896;BME280;61036;53.224;6.554;2023-10-13T06:37:05;100359.59;;;20.61;100.00
72896;BME280;61036;53.224;6.554;2023-10-13T06:39:50;100354.91;;;19.96;100.00
72896;BME280;61036;53.224;6.554;2023-10-13T06:42:16;100347.25;;;20.06;100.00
72896;BME280;61036;53.224;6.554;2023-10-13T06:44:43;100348.69;;;20.83;100.00
72896;BME280;61036;53.224;6.554;2023-10-13T06:47:11;100347.91;;;20.23;100.00
72896;BME280;61036;53.224;6.554;2023-10-13T06:49:39;100362.34;;;20.31;100.00
72896;BME280;61036;53.224;6.554;2023-10-13T06:52:05;100366.53;;;20.78;100.00
72896;BME280;61036;53.224;6.554;2023-10-13T06:54:35;100356.53;;;21.07;100.00
72896;BME280;61036;53.224;6.554;2023-10-13T06:57:01;100355.06;;;20.53;100.00
72896;BME280;61036;53.224;6.554;2023-10-13T06:59:33;100355.16;;;20.60;100.00
72896;BME280;61036;53.224;6.554;2023-10-13T07:02:00;100352.22;;;20.62;100.00
72896;BME280;61036;53.224;6.554;2023-10-13T07:04:37;100362.16;;;20.33;100.00
72896;BME280;61036;53.224;6.554;2023-10-13T07:07:06;100368.97;;;20.37;100.00
72896;BME280;61036;53.224;6.554;2023-10-13T07:09:36;100371.50;;;20.39;100.00
72896;BME280;61036;53.224;6.554;2023-10-13T07:12:03;100374.22;;;20.39;100.00
72896;BME280;61036;53.224;6.554;2023-10-13T07:14:32;100348.41;;;20.99;100.00
72896;BME280;61036;53.224;6.554;2023-10-13T07:17:06;100364.13;;;20.09;100.00
72896;BME280;61036;53.224;6.554;2023-10-13T07:19:33;100353.94;;;20.84;100.00
72896;BME280;61036;53.224;6.554;2023-10-13T07:22:01;100354.97;;;20.62;100.00
72896;BME280;61036;53.224;6.554;2023-10-13T07:24:46;100351.66;;;20.37;100.00
72896;BME280;61036;53.224;6.554;2023-10-13T07:27:24;100342.75;;;21.22;100.00
72896;BME280;61036;53.224;6.554;2023-10-13T07:29:55;100339.97;;;21.15;100.00
72896;BME280;61036;53.224;6.554;2023-10-13T07:32:41;100348.13;;;21.52;100.00
72896;BME280;61036;53.224;6.554;2023-10-13T07:35:15;100337.19;;;20.58;100.00
72896;BME280;61036;53.224;6.554;2023-10-13T07:37:43;100343.28;;;20.38;100.00
72896;BME280;61036;53.224;6.554;2023-10-13T07:40:09;100328.34;;;20.41;100.00
72896;BME280;61036;53.224;6.554;2023-10-13T07:42:56;100339.78;;;21.23;100.00
72896;BME280;61036;53.224;6.554;2023-10-13T07:45:30;100335.16;;;20.81;100.00
72896;BME280;61036;53.224;6.554;2023-10-13T07:48:03;100331.84;;;21.07;100.00
72896;BME280;61036;53.224;6.554;2023-10-13T07:51:06;100327.28;;;20.93;100.00
72896;BME280;61036;53.224;6.554;2023-10-13T07:53:36;100316.56;;;21.41;100.00
72896;BME280;61036;53.224;6.554;2023-10-13T07:56:04;100312.59;;;20.79;100.00
72896;BME280;61036;53.224;6.554;2023-10-13T07:58:39;100310.88;;;20.99;100.00
72896;BME280;61036;53.224;6.554;2023-10-13T08:01:28;100290.06;;;21.48;100.00
72896;BME280;61036;53.224;6.554;2023-10-13T08:03:53;100291.41;;;20.37;100.00
72896;BME280;61036;53.224;6.554;2023-10-13T08:06:30;100284.31;;;20.78;100.00
72896;BME280;61036;53.224;6.554;2023-10-13T08:08:55;100277.50;;;20.68;100.00
72896;BME280;61036;53.224;6.554;2023-10-13T08:11:32;100257.88;;;20.49;100.00
72896;BME280;61036;53.224;6.554;2023-10-13T08:14:01;100260.44;;;20.72;100.00
72896;BME280;61036;53.224;6.554;2023-10-13T08:16:40;100266.47;;;20.83;100.00
72896;BME280;61036;53.224;6.554;2023-10-13T08:19:26;100244.22;;;21.20;100.00
72896;BME280;61036;53.224;6.554;2023-10-13T08:21:54;100242.25;;;20.65;100.00
72896;BME280;61036;53.224;6.554;2023-10-13T08:24:25;100227.50;;;21.37;100.00
72896;BME280;61036;53.224;6.554;2023-10-13T08:27:03;100208.47;;;21.07;100.00
72896;BME280;61036;53.224;6.554;2023-10-13T08:29:49;100210.31;;;21.56;100.00
72896;BME280;61036;53.224;6.554;2023-10-13T08:32:25;100197.50;;;21.63;100.00
72896;BME280;61036;53.224;6.554;2023-10-13T08:35:02;100197.44;;;20.72;100.00
72896;BME280;61036;53.224;6.554;2023-10-13T08:37:29;100200.06;;;21.72;100.00
72896;BME280;61036;53.224;6.554;2023-10-13T08:39:58;100200.34;;;21.20;100.00
72896;BME280;61036;53.224;6.554;2023-10-13T08:42:37;100199.31;;;21.50;100.00
72896;BME280;61036;53.224;6.554;2023-10-13T08:45:09;100201.88;;;21.99;100.00
72896;BME280;61036;53.224;6.554;2023-10-13T08:47:48;100191.72;;;20.95;100.00
72896;BME280;61036;53.224;6.554;2023-10-13T08:50:34;100175.75;;;21.06;100.00
72896;BME280;61036;53.224;6.554;2023-10-13T08:55:58;100175.84;;;21.40;100.00
72896;BME280;61036;53.224;6.554;2023-10-13T08:58:40;100160.84;;;21.36;100.00
72896;BME280;61036;53.224;6.554;2023-10-13T09:01:23;100172.81;;;21.63;100.00
72896;BME280;61036;53.224;6.554;2023-10-13T09:04:09;100141.81;;;21.00;100.00
72896;BME280;61036;53.224;6.554;2023-10-13T09:07:15;100167.00;;;21.93;100.00
72896;BME280;61036;53.224;6.554;2023-10-13T09:09:46;100158.56;;;21.46;100.00
72896;BME280;61036;53.224;6.554;2023-10-13T09:12:21;100122.88;;;21.40;100.00
72896;BME280;61036;53.224;6.554;2023-10-13T09:15:06;100150.53;;;21.45;100.00
72896;BME280;61036;53.224;6.554;2023-10-13T09:17:40;100130.16;;;22.22;100.00
72896;BME280;61036;53.224;6.554;2023-10-13T09:20:08;100122.19;;;21.79;100.00
72896;BME280;61036;53.224;6.554;2023-10-13T09:22:54;100138.28;;;21.89;100.00
72896;BME280;61036;53.224;6.554;2023-10-13T09:25:37;100129.69;;;22.12;100.00
72896;BME280;61036;53.224;6.554;2023-10-13T09:28:14;100125.75;;;21.66;100.00
72896;BME280;61036;53.224;6.554;2023-10-13T09:30:54;100113.47;;;22.24;100.00
72896;BME280;61036;53.224;6.554;2023-10-13T09:33:27;100102.91;;;22.74;100.00
72896;BME280;61036;53.224;6.554;2023-10-13T09:36:00;100103.97;;;22.40;100.00
72896;BME280;61036;53.224;6.554;2023-10-13T09:38:28;100079.06;;;22.48;100.00
72896;BME280;61036;53.224;6.554;2023-10-13T09:40:54;100081.38;;;22.51;100.00
72896;BME280;61036;53.224;6.554;2023-10-13T09:43:23;100088.75;;;22.30;100.00
72896;BME280;61036;53.224;6.554;2023-10-13T09:45:52;100078.00;;;22.35;100.00
72896;BME280;61036;53.224;6.554;2023-10-13T09:48:36;100090.41;;;23.18;100.00
72896;BME280;61036;53.224;6.554;2023-10-13T09:51:12;100089.19;;;22.54;100.00
72896;BME280;61036;53.224;6.554;2023-10-13T09:53:43;100070.34;;;22.71;100.00
72896;BME280;61036;53.224;6.554;2023-10-13T09:56:18;100072.25;;;23.62;100.00
72896;BME280;61036;53.224;6.554;2023-10-13T09:59:09;100075.00;;;22.77;100.00
72896;BME280;61036;53.224;6.554;2023-10-13T10:01:43;100071.63;;;23.60;100.00
72896;BME280;61036;53.224;6.554;2023-10-13T10:04:22;100071.81;;;22.73;100.00
72896;BME280;61036;53.224;6.554;2023-10-13T10:06:58;100070.34;;;22.71;100.00
72896;BME280;61036;53.224;6.554;2023-10-13T10:09:29;100067.13;;;23.07;100.00
72896;BME280;61036;53.224;6.554;2023-10-13T10:12:12;100071.84;;;23.96;100.00
72896;BME280;61036;53.224;6.554;2023-10-13T10:17:15;100075.38;;;23.72;100.00
72896;BME280;61036;53.224;6.554;2023-10-13T10:19:50;100064.44;;;24.79;100.00
72896;BME280;61036;53.224;6.554;2023-10-13T10:22:32;100064.13;;;23.80;100.00
72896;BME280;61036;53.224;6.554;2023-10-13T10:25:06;100048.41;;;24.19;100.00
72896;BME280;61036;53.224;6.554;2023-10-13T10:28:01;100055.44;;;23.77;100.00
72896;BME280;61036;53.224;6.554;2023-10-13T10:30:32;100052.66;;;23.38;100.00
72896;BME280;61036;53.224;6.554;2023-10-13T10:32:59;100046.75;;;23.35;100.00
72896;BME280;61036;53.224;6.554;2023-10-13T10:35:25;100022.94;;;23.54;100.00
72896;BME280;61036;53.224;6.554;2023-10-13T10:38:18;100030.47;;;25.03;100.00
72896;BME280;61036;53.224;6.554;2023-10-13T10:41:02;100019.94;;;23.10;100.00
72896;BME280;61036;53.224;6.554;2023-10-13T10:46:15;99995.75;;;23.77;100.00
72896;BME280;61036;53.224;6.554;2023-10-13T10:48:44;100003.53;;;24.37;100.00
72896;BME280;61036;53.224;6.554;2023-10-13T10:51:11;100028.44;;;23.54;100.00
72896;BME280;61036;53.224;6.554;2023-10-13T10:53:46;100008.81;;;23.82;100.00
72896;BME280;61036;53.224;6.554;2023-10-13T10:56:13;99997.94;;;23.55;100.00
72896;BME280;61036;53.224;6.554;2023-10-13T10:58:55;99980.50;;;23.75;100.00
72896;BME280;61036;53.224;6.554;2023-10-13T11:01:24;99989.94;;;23.92;100.00
72896;BME280;61036;53.224;6.554;2023-10-13T11:04:03;99990.94;;;24.91;100.00
72896;BME280;61036;53.224;6.554;2023-10-13T11:09:13;99987.91;;;24.56;100.00
72896;BME280;61036;53.224;6.554;2023-10-13T11:12:17;99980.47;;;25.60;100.00
72896;BME280;61036;53.224;6.554;2023-10-13T11:14:48;99970.84;;;24.66;100.00
72896;BME280;61036;53.224;6.554;2023-10-13T11:17:20;99964.31;;;24.60;100.00
72896;BME280;61036;53.224;6.554;2023-10-13T11:20:13;99969.69;;;24.05;100.00
72896;BME280;61036;53.224;6.554;2023-10-13T11:22:49;99965.13;;;24.42;100.00
72896;BME280;61036;53.224;6.554;2023-10-13T11:25:29;99961.72;;;24.65;100.00
72896;BME280;61036;53.224;6.554;2023-10-13T11:28:10;99976.72;;;24.26;100.00
72896;BME280;61036;53.224;6.554;2023-10-13T11:30:43;99986.22;;;24.05;100.00
72896;BME280;61036;53.224;6.554;2023-10-13T11:33:15;99978.56;;;24.07;100.00
72896;BME280;61036;53.224;6.554;2023-10-13T11:35:43;99967.88;;;23.92;100.00
72896;BME280;61036;53.224;6.554;2023-10-13T11:38:22;99969.00;;;24.96;100.00
72896;BME280;61036;53.224;6.554;2023-10-13T11:41:04;99970.00;;;24.65;100.00
72896;BME280;61036;53.224;6.554;2023-10-13T11:46:16;99962.13;;;24.18;100.00
72896;BME280;61036;53.224;6.554;2023-10-13T11:48:43;99963.84;;;24.19;100.00
72896;BME280;61036;53.224;6.554;2023-10-13T11:51:11;99948.47;;;23.48;100.00
72896;BME280;61036;53.224;6.554;2023-10-13T11:53:44;99940.69;;;23.39;100.00
72896;BME280;61036;53.224;6.554;2023-10-13T11:56:21;99959.25;;;23.50;100.00
72896;BME280;61036;53.224;6.554;2023-10-13T11:58:47;99943.31;;;23.59;100.00
72896;BME280;61036;53.224;6.554;2023-10-13T12:01:13;99950.22;;;24.00;100.00
72896;BME280;61036;53.224;6.554;2023-10-13T12:03:42;99952.63;;;23.58;100.00
72896;BME280;61036;53.224;6.554;2023-10-13T12:06:28;99945.00;;;23.60;100.00
72896;BME280;61036;53.224;6.554;2023-10-13T12:09:10;99932.34;;;24.09;100.00
72896;BME280;61036;53.224;6.554;2023-10-13T12:11:42;99943.13;;;24.35;100.00
72896;BME280;61036;53.224;6.554;2023-10-13T12:14:10;99939.78;;;24.52;100.00
72896;BME280;61036;53.224;6.554;2023-10-13T12:16:47;99932.75;;;24.12;100.00
72896;BME280;61036;53.224;6.554;2023-10-13T12:19:20;99929.34;;;24.35;100.00
72896;BME280;61036;53.224;6.554;2023-10-13T12:21:53;99918.78;;;24.32;100.00
72896;BME280;61036;53.224;6.554;2023-10-13T12:24:22;99927.72;;;24.28;100.00
72896;BME280;61036;53.224;6.554;2023-10-13T12:26:57;99914.06;;;23.71;100.00
72896;BME280;61036;53.224;6.554;2023-10-13T12:29:23;99922.25;;;24.03;100.00
72896;BME280;61036;53.224;6.554;2023-10-13T12:31:54;99920.94;;;24.05;100.00
72896;BME280;61036;53.224;6.554;2023-10-13T12:34:38;99940.66;;;24.27;100.00
72896;BME280;61036;53.224;6.554;2023-10-13T12:37:29;99941.78;;;23.94;100.00
72896;BME280;61036;53.224;6.554;2023-10-13T12:40:17;99921.22;;;24.47;100.00
72896;BME280;61036;53.224;6.554;2023-10-13T12:43:01;99935.16;;;24.27;100.00
72896;BME280;61036;53.224;6.554;2023-10-13T12:45:46;99941.44;;;24.59;100.00
72896;BME280;61036;53.224;6.554;2023-10-13T12:48:31;99922.13;;;23.91;100.00
72896;BME280;61036;53.224;6.554;2023-10-13T12:51:16;99922.16;;;23.59;100.00
72896;BME280;61036;53.224;6.554;2023-10-13T12:53:55;99909.50;;;23.20;100.00
72896;BME280;61036;53.224;6.554;2023-10-13T12:56:21;99911.50;;;23.38;100.00
72896;BME280;61036;53.224;6.554;2023-10-13T12:58:54;99910.91;;;23.29;100.00
72896;BME280;61036;53.224;6.554;2023-10-13T13:01:24;99925.72;;;23.28;100.00
72896;BME280;61036;53.224;6.554;2023-10-13T13:03:52;99921.47;;;23.64;100.00
72896;BME280;61036;53.224;6.554;2023-10-13T13:06:23;99914.53;;;23.55;100.00
72896;BME280;61036;53.224;6.554;2023-10-13T13:11:17;99921.41;;;23.00;100.00
72896;BME280;61036;53.224;6.554;2023-10-13T13:13:43;99921.72;;;22.72;100.00
72896;BME280;61036;53.224;6.554;2023-10-13T13:16:12;99917.25;;;23.30;100.00
72896;BME280;61036;53.224;6.554;2023-10-13T13:18:37;99918.31;;;22.77;100.00
72896;BME280;61036;53.224;6.554;2023-10-13T13:21:03;99891.75;;;22.57;100.00
72896;BME280;61036;53.224;6.554;2023-10-13T13:23:32;99888.78;;;23.17;100.00
72896;BME280;61036;53.224;6.554;2023-10-13T13:26:00;99870.16;;;22.68;100.00
72896;BME280;61036;53.224;6.554;2023-10-13T13:28:25;99872.19;;;22.86;100.00
72896;BME280;61036;53.224;6.554;2023-10-13T13:30:54;99882.28;;;22.98;100.00
72896;BME280;61036;53.224;6.554;2023-10-13T13:33:20;99884.78;;;23.07;100.00
72896;BME280;61036;53.224;6.554;2023-10-13T13:35:54;99880.09;;;23.45;100.00
72896;BME280;61036;53.224;6.554;2023-10-13T13:38:20;99888.41;;;22.49;100.00
72896;BME280;61036;53.224;6.554;2023-10-13T13:40:53;99892.78;;;23.15;100.00